Time;durP1;ratioP1;P1;durP2;ratioP2;P2;SDS_P1;SDS_P2;PMS_P1;PMS_P2;Temp;Humidity;BMP_temperature;BMP_pressure;BME280_temperature;BME280_humidity;BME280_pressure;Samples;Min_cycle;Max_cycle;Signal;HPM_P1;HPM_P2
2023/12/22 00:00:47;;;;;;;6.75;1.40;;;29.20;63.10;;;;;;5050868;28;20106;-75
2023/12/22 00:03:15;;;;;;;6.20;1.10;;;29.00;63.20;;;;;;5056642;28;20021;-74
2023/12/22 00:05:45;;;;;;;4.85;1.10;;;28.60;63.40;;;;;;5051601;28;20476;-74
2023/12/22 00:08:13;;;;;;;10.02;1.20;;;28.30;62.20;;;;;;5054267;28;20075;-74
2023/12/22 00:10:40;;;;;;;7.32;1.38;;;27.90;63.30;;;;;;5046632;28;20025;-74
2023/12/22 00:13:08;;;;;;;8.98;1.40;;;28.00;61.80;;;;;;5050053;28;20045;-75
2023/12/22 00:15:35;;;;;;;11.98;1.40;;;28.20;63.20;;;;;;5051762;28;20033;-75
2023/12/22 00:18:03;;;;;;;9.73;1.83;;;28.50;64.80;;;;;;5050732;28;20024;-75
2023/12/22 00:20:31;;;;;;;10.15;1.52;;;28.80;66.30;;;;;;5051343;28;20032;-75
2023/12/22 00:22:58;;;;;;;6.20;1.73;;;28.80;62.30;;;;;;5026219;28;20164;-74
2023/12/22 00:25:26;;;;;;;10.90;1.50;;;28.30;59.50;;;;;;5045228;28;20417;-75
2023/12/22 00:27:53;;;;;;;6.65;1.40;;;28.10;62.60;;;;;;5049055;28;20119;-74
2023/12/22 00:30:20;;;;;;;6.40;1.25;;;28.20;62.10;;;;;;5050211;28;20021;-75
2023/12/22 00:32:48;;;;;;;8.30;1.25;;;28.00;62.80;;;;;;5044736;28;20430;-75
2023/12/22 00:35:15;;;;;;;12.32;1.80;;;28.30;62.20;;;;;;5029379;28;20028;-75
2023/12/22 00:37:42;;;;;;;9.65;1.20;;;27.70;61.20;;;;;;5042017;28;20124;-75
2023/12/22 00:40:10;;;;;;;7.05;1.73;;;27.00;62.50;;;;;;5047944;28;20032;-75
2023/12/22 00:42:41;;;;;;;7.28;1.20;;;27.00;62.30;;;;;;5049638;28;20031;-75
2023/12/22 00:45:09;;;;;;;7.93;1.08;;;27.40;65.10;;;;;;5032879;28;20040;-74
2023/12/22 00:47:37;;;;;;;8.73;1.20;;;28.20;64.00;;;;;;5031389;28;20023;-75
2023/12/22 00:50:05;;;;;;;5.40;1.10;;;28.60;63.80;;;;;;5051401;28;20033;-73
2023/12/22 00:52:33;;;;;;;6.03;1.40;;;29.10;59.40;;;;;;5050269;28;20060;-73
2023/12/22 00:55:01;;;;;;;8.27;1.15;;;29.60;61.20;;;;;;5052432;28;20039;-72
2023/12/22 00:57:28;;;;;;;6.40;1.20;;;29.80;60.90;;;;;;5048090;28;20029;-73
2023/12/22 00:59:55;;;;;;;7.25;1.50;;;29.90;58.70;;;;;;5048545;28;20048;-72
2023/12/22 01:02:22;;;;;;;5.93;1.23;;;29.20;57.20;;;;;;5052812;28;20039;-73
2023/12/22 01:04:50;;;;;;;9.93;0.98;;;28.80;58.20;;;;;;5049927;28;20029;-74
2023/12/22 01:07:18;;;;;;;6.22;1.42;;;28.80;60.20;;;;;;5051669;28;20112;-74
2023/12/22 01:09:45;;;;;;;10.43;1.90;;;28.70;60.70;;;;;;5050814;28;20021;-71
2023/12/22 01:12:13;;;;;;;10.38;1.50;;;28.80;58.80;;;;;;5046535;28;20037;-71
2023/12/22 01:14:40;;;;;;;5.40;0.90;;;29.30;59.20;;;;;;5051702;28;20036;-71
2023/12/22 01:17:08;;;;;;;6.82;1.52;;;29.40;57.10;;;;;;5048831;28;20579;-72
2023/12/22 01:19:35;;;;;;;7.35;1.13;;;28.50;60.30;;;;;;5052700;28;20036;-72
2023/12/22 01:22:03;;;;;;;6.72;1.00;;;29.00;62.00;;;;;;5050933;28;20021;-72
2023/12/22 01:24:30;;;;;;;6.65;1.17;;;29.70;60.10;;;;;;5052034;28;20021;-72
2023/12/22 01:26:58;;;;;;;8.27;1.73;;;29.30;57.90;;;;;;5052375;28;20492;-73
2023/12/22 01:29:26;;;;;;;7.72;1.60;;;28.70;58.40;;;;;;5048437;28;20083;-72
2023/12/22 01:31:53;;;;;;;5.90;1.15;;;28.60;59.50;;;;;;5047816;28;20044;-72
2023/12/22 01:34:21;;;;;;;8.07;1.27;;;29.50;60.20;;;;;;5049878;28;20025;-73
2023/12/22 01:36:49;;;;;;;7.78;1.33;;;30.20;58.10;;;;;;5029183;28;20029;-74
2023/12/22 01:39:17;;;;;;;6.20;0.90;;;30.70;58.40;;;;;;5047532;28;20021;-73
2023/12/22 01:41:45;;;;;;;8.35;1.40;;;31.00;55.90;;;;;;5035280;28;20036;-71
2023/12/22 01:44:12;;;;;;;3.85;1.27;;;30.40;55.10;;;;;;5043062;28;20409;-72
2023/12/22 01:46:40;;;;;;;9.55;1.08;;;30.00;54.30;;;;;;5045230;28;20610;-71
2023/12/22 01:49:08;;;;;;;6.20;1.40;;;29.70;56.10;;;;;;5048817;28;20111;-71
2023/12/22 01:51:40;;;;;;;5.85;0.93;;;29.90;56.60;;;;;;5025805;28;20064;-72
2023/12/22 01:54:07;;;;;;;5.55;1.30;;;30.40;59.30;;;;;;5051665;28;20020;-72
2023/12/22 01:56:35;;;;;;;6.00;0.90;;;30.70;56.90;;;;;;5043223;28;20021;-70
2023/12/22 01:59:03;;;;;;;4.78;1.02;;;30.60;54.20;;;;;;5041075;28;20021;-71
2023/12/22 02:01:32;;;;;;;7.60;1.00;;;30.90;57.80;;;;;;5048791;28;20438;-71
2023/12/22 02:04:00;;;;;;;6.55;0.68;;;31.30;55.20;;;;;;5044486;28;20064;-71
2023/12/22 02:06:29;;;;;;;6.22;1.10;;;31.40;53.20;;;;;;5050472;28;20486;-72
2023/12/22 02:08:58;;;;;;;4.47;0.98;;;31.50;54.20;;;;;;5056000;28;20028;-73
2023/12/22 02:11:25;;;;;;;6.22;1.17;;;31.50;55.00;;;;;;5052186;28;20447;-72
2023/12/22 02:13:53;;;;;;;7.82;1.40;;;31.10;53.00;;;;;;5052955;28;20386;-73
2023/12/22 02:16:26;;;;;;;7.47;1.20;;;31.00;53.40;;;;;;5056268;28;20329;-73
2023/12/22 02:18:57;;;;;;;4.53;1.20;;;31.40;55.00;;;;;;5052256;28;20029;-73
2023/12/22 02:21:24;;;;;;;3.70;1.30;;;31.40;56.20;;;;;;5054817;28;20342;-72
2023/12/22 02:23:51;;;;;;;6.18;0.90;;;31.50;53.90;;;;;;5061912;28;20369;-73
2023/12/22 02:26:29;;;;;;;5.43;0.90;;;31.90;53.10;;;;;;5055325;28;20025;-74
2023/12/22 02:28:59;;;;;;;4.45;1.15;;;32.10;54.10;;;;;;5056454;28;20091;-73
2023/12/22 02:31:49;;;;;;;5.85;1.10;;;32.00;51.50;;;;;;5038786;28;20485;-73
2023/12/22 02:34:23;;;;;;;6.55;1.17;;;31.80;52.90;;;;;;5059768;28;20029;-73
2023/12/22 02:36:52;;;;;;;5.63;0.95;;;31.80;51.80;;;;;;5056574;28;20164;-72
2023/12/22 02:39:21;;;;;;;7.13;0.90;;;32.00;51.90;;;;;;5032512;28;20069;-73
2023/12/22 02:41:49;;;;;;;3.20;0.60;;;32.10;52.30;;;;;;5035695;28;20063;-72
2023/12/22 02:44:17;;;;;;;4.57;0.73;;;31.80;51.60;;;;;;5058927;28;20059;-73
2023/12/22 02:46:46;;;;;;;7.35;0.93;;;31.80;53.00;;;;;;5055756;28;20454;-72
2023/12/22 02:49:14;;;;;;;6.07;1.02;;;31.80;49.80;;;;;;5052811;28;20032;-72
2023/12/22 02:51:41;;;;;;;4.32;0.90;;;31.40;51.60;;;;;;5053687;28;20053;-71
2023/12/22 02:54:29;;;;;;;4.47;0.75;;;31.00;52.70;;;;;;5022858;28;20052;-70
2023/12/22 02:56:58;;;;;;;3.38;0.80;;;30.60;52.20;;;;;;5051164;28;20412;-71
2023/12/22 02:59:28;;;;;;;6.55;1.10;;;31.20;53.10;;;;;;5055009;28;20056;-71
2023/12/22 03:01:55;;;;;;;4.25;1.00;;;31.60;52.30;;;;;;5053559;28;20037;-72
2023/12/22 03:04:26;;;;;;;6.15;1.02;;;31.50;51.80;;;;;;5051366;28;20035;-71
2023/12/22 03:06:54;;;;;;;8.60;1.45;;;31.80;52.90;;;;;;5049344;28;20013;-72
2023/12/22 03:09:22;;;;;;;10.10;1.98;;;31.80;53.70;;;;;;5043902;28;20030;-72
2023/12/22 03:11:54;;;;;;;15.18;2.15;;;31.50;53.40;;;;;;5043464;28;20052;-73
2023/12/22 03:14:23;;;;;;;11.02;1.60;;;31.10;53.10;;;;;;5040202;28;20072;-73
2023/12/22 03:16:50;;;;;;;8.73;1.40;;;31.00;54.30;;;;;;5039512;28;20162;-73
2023/12/22 03:19:18;;;;;;;7.03;1.10;;;30.50;54.00;;;;;;5034069;28;20032;-71
2023/12/22 03:21:46;;;;;;;8.85;1.92;;;30.30;55.10;;;;;;5054312;28;20056;-72
2023/12/22 03:24:18;;;;;;;6.95;1.10;;;29.90;55.40;;;;;;5047039;28;20418;-71
2023/12/22 03:26:52;;;;;;;12.25;1.92;;;29.90;55.60;;;;;;5050830;28;20037;-71
2023/12/22 03:29:20;;;;;;;9.15;1.45;;;29.80;54.80;;;;;;5047521;28;20025;-70
2023/12/22 03:31:56;;;;;;;7.82;1.45;;;29.90;54.50;;;;;;5036710;28;20041;-69
2023/12/22 03:34:24;;;;;;;8.50;1.23;;;30.10;55.00;;;;;;5056646;28;20028;-71
2023/12/22 03:36:52;;;;;;;9.55;1.20;;;30.00;55.20;;;;;;5047142;28;20021;-71
2023/12/22 03:39:19;;;;;;;9.05;1.15;;;30.30;54.70;;;;;;5054581;28;20131;-71
2023/12/22 03:41:47;;;;;;;5.82;1.17;;;30.50;55.30;;;;;;5035842;28;20032;-70
2023/12/22 03:44:14;;;;;;;9.30;1.42;;;30.10;54.10;;;;;;5047144;28;20036;-72
2023/12/22 03:46:42;;;;;;;6.60;1.35;;;29.80;53.90;;;;;;5050854;28;20037;-72
2023/12/22 03:49:10;;;;;;;10.02;1.67;;;29.90;55.10;;;;;;5053959;28;20033;-72
2023/12/22 03:51:41;;;;;;;7.95;1.50;;;29.80;54.40;;;;;;5051868;28;20049;-72
2023/12/22 03:54:10;;;;;;;7.65;1.48;;;29.70;54.30;;;;;;5059868;28;20067;-70
2023/12/22 03:56:37;;;;;;;9.43;1.95;;;29.90;54.40;;;;;;5049881;28;20024;-71
2023/12/22 03:59:05;;;;;;;6.20;1.33;;;29.80;54.20;;;;;;5052054;28;20078;-71
2023/12/22 04:01:32;;;;;;;8.05;1.15;;;29.80;54.20;;;;;;5049915;28;20052;-70
2023/12/22 04:04:00;;;;;;;12.02;1.90;;;29.50;54.50;;;;;;5057352;28;20033;-74
2023/12/22 04:06:28;;;;;;;5.93;1.70;;;29.30;53.90;;;;;;5041213;28;20043;-73
2023/12/22 04:08:56;;;;;;;9.02;1.42;;;29.10;54.70;;;;;;5033032;28;20043;-75
2023/12/22 04:11:23;;;;;;;5.68;1.55;;;28.50;54.50;;;;;;5057104;28;20086;-74
2023/12/22 04:13:51;;;;;;;7.95;1.17;;;28.40;55.80;;;;;;5053719;28;20033;-72
2023/12/22 04:16:18;;;;;;;8.27;1.60;;;28.90;55.60;;;;;;5050982;28;20033;-73
2023/12/22 04:18:46;;;;;;;17.05;2.80;;;28.90;55.40;;;;;;5050952;28;20066;-73
2023/12/22 04:21:17;;;;;;;8.25;1.58;;;28.80;53.80;;;;;;5056990;28;20008;-73
2023/12/22 04:23:44;;;;;;;4.43;1.38;;;28.80;54.90;;;;;;5054747;28;20024;-72
2023/12/22 04:26:11;;;;;;;9.27;1.33;;;28.70;54.90;;;;;;5053883;28;20032;-73
2023/12/22 04:28:39;;;;;;;16.10;1.30;;;28.90;55.10;;;;;;5054526;28;20481;-73
2023/12/22 04:31:06;;;;;;;5.60;1.15;;;29.10;55.50;;;;;;5053421;28;20037;-73
2023/12/22 04:33:39;;;;;;;8.40;0.93;;;29.20;54.70;;;;;;5051497;28;20111;-73
2023/12/22 04:36:07;;;;;;;7.20;1.27;;;29.10;54.30;;;;;;5051541;28;20052;-73
2023/12/22 04:38:35;;;;;;;7.90;1.20;;;28.90;54.50;;;;;;5047436;28;20024;-74
2023/12/22 04:41:02;;;;;;;6.43;1.13;;;28.70;55.50;;;;;;5052448;28;20024;-73
2023/12/22 04:43:34;;;;;;;8.52;1.20;;;29.00;55.50;;;;;;5045616;28;20941;-73
2023/12/22 04:46:01;;;;;;;6.78;1.40;;;29.00;54.80;;;;;;5042206;28;20061;-73
2023/12/22 04:48:35;;;;;;;9.05;1.75;;;28.90;56.10;;;;;;5034447;28;20465;-73
2023/12/22 04:51:02;;;;;;;6.18;1.02;;;28.90;54.80;;;;;;5041558;28;20060;-73
2023/12/22 04:53:30;;;;;;;6.90;1.10;;;28.90;54.80;;;;;;5048223;28;20021;-73
2023/12/22 04:55:58;;;;;;;5.82;1.45;;;28.70;54.50;;;;;;5047595;28;20116;-73
2023/12/22 04:58:26;;;;;;;5.40;1.00;;;28.40;54.50;;;;;;5046276;28;20025;-74
2023/12/22 05:00:53;;;;;;;10.02;1.20;;;28.20;55.10;;;;;;5033173;28;20033;-74
2023/12/22 05:03:21;;;;;;;9.57;2.03;;;28.10;55.70;;;;;;5051651;28;20470;-74
2023/12/22 05:05:48;;;;;;;6.00;0.90;;;28.30;55.20;;;;;;5050050;28;20037;-74
2023/12/22 05:08:16;;;;;;;5.28;1.33;;;28.20;54.90;;;;;;5048961;28;20062;-73
2023/12/22 05:10:43;;;;;;;4.68;1.02;;;28.20;55.80;;;;;;5050007;28;20121;-75
2023/12/22 05:13:11;;;;;;;9.32;1.08;;;28.30;55.50;;;;;;5033150;28;20040;-74
2023/12/22 05:15:49;;;;;;;8.43;1.10;;;28.30;56.00;;;;;;5058876;28;20082;-73
2023/12/22 05:18:19;;;;;;;9.27;1.00;;;28.20;55.10;;;;;;5047744;28;20459;-73
2023/12/22 05:20:47;;;;;;;8.15;1.13;;;28.20;55.40;;;;;;5055974;28;20035;-74
2023/12/22 05:23:15;;;;;;;9.48;1.10;;;28.40;55.40;;;;;;5058087;28;20369;-73
2023/12/22 05:25:43;;;;;;;10.82;1.33;;;28.60;55.30;;;;;;5054860;28;20457;-72
2023/12/22 05:28:13;;;;;;;8.50;1.45;;;28.50;54.70;;;;;;5055078;28;20029;-73
2023/12/22 05:31:00;;;;;;;10.73;1.52;;;28.30;55.90;;;;;;5053361;28;20033;-73
2023/12/22 05:33:27;;;;;;;9.48;1.73;;;28.10;55.70;;;;;;5038698;28;20628;-74
2023/12/22 05:35:58;;;;;;;23.45;4.47;;;28.00;55.90;;;;;;5048492;28;20106;-73
2023/12/22 05:38:25;;;;;;;9.85;2.20;;;28.20;56.30;;;;;;5055022;28;20087;-71
2023/12/22 05:40:52;;;;;;;5.35;1.50;;;28.30;55.80;;;;;;5038764;28;20069;-70
2023/12/22 05:43:20;;;;;;;6.95;1.00;;;28.30;55.80;;;;;;5057524;28;20032;-72
2023/12/22 05:45:47;;;;;;;5.82;1.05;;;28.10;55.90;;;;;;5055073;28;20036;-71
2023/12/22 05:48:15;;;;;;;4.38;0.90;;;28.00;55.40;;;;;;5052818;28;20028;-71
2023/12/22 05:50:42;;;;;;;6.43;1.23;;;27.80;55.80;;;;;;5054550;28;20067;-72
2023/12/22 05:53:11;;;;;;;10.98;2.33;;;27.90;55.90;;;;;;5054646;28;20033;-72
2023/12/22 05:55:39;;;;;;;7.25;2.60;;;27.90;57.10;;;;;;5035870;28;20028;-73
2023/12/22 05:58:06;;;;;;;7.80;1.92;;;28.00;57.50;;;;;;5059140;28;20367;-74
2023/12/22 06:00:35;;;;;;;5.28;1.23;;;27.90;58.10;;;;;;5051647;28;20423;-73
2023/12/22 06:03:03;;;;;;;6.82;1.42;;;27.80;58.10;;;;;;5036310;28;20056;-74
2023/12/22 06:05:30;;;;;;;4.60;1.35;;;28.00;58.30;;;;;;5031774;28;20056;-74
2023/12/22 06:07:57;;;;;;;8.25;1.40;;;28.00;59.10;;;;;;5058140;28;20064;-74
2023/12/22 06:10:25;;;;;;;14.25;2.13;;;27.80;58.50;;;;;;5051904;28;20421;-74
2023/12/22 06:12:52;;;;;;;5.35;1.38;;;28.00;58.70;;;;;;5055676;28;20044;-75
2023/12/22 06:15:23;;;;;;;6.95;1.13;;;28.10;58.90;;;;;;5030515;28;20032;-74
2023/12/22 06:17:50;;;;;;;5.32;1.17;;;27.90;58.40;;;;;;5052759;28;20029;-75
2023/12/22 06:20:18;;;;;;;10.07;1.55;;;27.80;58.30;;;;;;5051914;28;20029;-72
2023/12/22 06:22:45;;;;;;;7.15;1.17;;;27.80;58.60;;;;;;5051278;28;20052;-72
2023/12/22 06:25:12;;;;;;;6.75;1.20;;;27.90;58.80;;;;;;5027859;28;20041;-73
2023/12/22 06:27:40;;;;;;;8.70;1.10;;;27.80;58.40;;;;;;5045865;28;20029;-75
2023/12/22 06:30:08;;;;;;;10.55;1.38;;;27.30;59.00;;;;;;5044497;28;20549;-74
2023/12/22 06:32:39;;;;;;;4.80;1.05;;;27.10;59.10;;;;;;5046308;28;20029;-73
2023/12/22 06:35:08;;;;;;;5.95;1.00;;;26.90;60.00;;;;;;5046085;28;20029;-73
2023/12/22 06:37:36;;;;;;;5.90;1.52;;;26.90;59.50;;;;;;5047576;28;20025;-73
2023/12/22 06:40:18;;;;;;;8.30;1.63;;;27.00;60.60;;;;;;5049368;28;20073;-73
2023/12/22 06:42:46;;;;;;;6.63;1.10;;;27.00;60.70;;;;;;5030987;28;20052;-73
2023/12/22 06:45:13;;;;;;;13.35;1.50;;;27.10;60.50;;;;;;5048531;28;20435;-73
2023/12/22 06:47:44;;;;;;;4.45;0.95;;;27.20;61.00;;;;;;5048529;28;20435;-74
2023/12/22 06:50:11;;;;;;;8.70;1.15;;;27.10;60.20;;;;;;5047152;28;20026;-73
2023/12/22 06:52:39;;;;;;;4.18;0.80;;;27.00;59.70;;;;;;5050290;28;20199;-74
2023/12/22 06:55:07;;;;;;;7.25;0.95;;;26.90;60.00;;;;;;5059504;28;20033;-74
2023/12/22 06:57:34;;;;;;;11.57;3.58;;;26.70;59.60;;;;;;5047443;28;20033;-73
2023/12/22 07:00:02;;;;;;;10.32;2.08;;;26.70;60.90;;;;;;5055504;28;20021;-73
2023/12/22 07:02:29;;;;;;;8.77;1.20;;;26.80;60.60;;;;;;5056920;28;20045;-73
2023/12/22 07:05:25;;;;;;;7.47;1.42;;;26.70;60.70;;;;;;5051650;28;20012;-72
2023/12/22 07:07:52;;;;;;;8.15;1.30;;;26.60;60.60;;;;;;5055618;28;20036;-73
2023/12/22 07:10:19;;;;;;;6.18;1.60;;;26.50;60.50;;;;;;5052604;28;20024;-74
2023/12/22 07:12:47;;;;;;;9.43;1.58;;;26.30;61.30;;;;;;5054600;28;20036;-74
2023/12/22 07:15:14;;;;;;;5.82;1.30;;;26.10;62.10;;;;;;5053646;28;20060;-74
2023/12/22 07:17:42;;;;;;;10.63;1.55;;;26.10;62.60;;;;;;5033269;28;20033;-74
2023/12/22 07:20:10;;;;;;;6.65;1.20;;;26.10;62.80;;;;;;5053411;28;20390;-74
2023/12/22 07:22:37;;;;;;;9.75;1.60;;;26.10;62.40;;;;;;5053379;28;20107;-74
2023/12/22 07:25:08;;;;;;;4.93;0.98;;;26.20;63.00;;;;;;5051383;28;20029;-74
2023/12/22 07:27:35;;;;;;;16.67;1.88;;;26.40;62.90;;;;;;5039221;28;20039;-75
2023/12/22 07:30:03;;;;;;;7.53;1.55;;;26.50;63.20;;;;;;5048044;28;20056;-74
2023/12/22 07:32:31;;;;;;;6.60;1.52;;;26.50;62.60;;;;;;5035068;28;20040;-73
2023/12/22 07:34:58;;;;;;;6.63;1.42;;;26.40;62.70;;;;;;5052198;28;20033;-74
2023/12/22 07:37:30;;;;;;;5.93;1.20;;;26.40;62.60;;;;;;5050273;28;20036;-74
2023/12/22 07:39:57;;;;;;;7.32;1.40;;;26.20;62.90;;;;;;5051545;28;20044;-73
2023/12/22 07:42:24;;;;;;;12.98;1.90;;;26.10;63.50;;;;;;5039115;28;20021;-73
2023/12/22 07:44:52;;;;;;;9.43;1.80;;;25.90;64.00;;;;;;5052148;28;20032;-73
2023/12/22 07:47:19;;;;;;;11.68;1.70;;;25.80;64.30;;;;;;5053857;28;20473;-74
2023/12/22 07:49:49;;;;;;;4.63;1.27;;;25.80;64.30;;;;;;5046276;28;20546;-74
2023/12/22 07:52:17;;;;;;;5.55;1.20;;;25.80;64.50;;;;;;5053275;28;20511;-73
2023/12/22 07:54:44;;;;;;;7.78;1.10;;;25.60;64.60;;;;;;5053887;28;20067;-73
2023/12/22 07:57:11;;;;;;;9.18;1.50;;;25.50;65.30;;;;;;5051870;28;20028;-74
2023/12/22 07:59:39;;;;;;;6.50;1.20;;;25.30;65.20;;;;;;5053307;28;20538;-72
2023/12/22 08:02:07;;;;;;;8.10;1.30;;;25.20;65.70;;;;;;5035424;28;20029;-74
2023/12/22 08:04:34;;;;;;;12.27;1.15;;;25.10;66.60;;;;;;5048162;28;20025;-73
2023/12/22 08:07:02;;;;;;;9.52;1.55;;;25.00;67.90;;;;;;5054337;28;20144;-73
2023/12/22 08:09:29;;;;;;;8.77;1.30;;;24.90;68.10;;;;;;5047444;28;20112;-73
2023/12/22 08:11:57;;;;;;;8.63;1.05;;;24.70;68.50;;;;;;5038050;28;20458;-73
2023/12/22 08:14:24;;;;;;;18.42;2.78;;;24.60;69.10;;;;;;5050889;28;20533;-73
2023/12/22 08:16:52;;;;;;;8.52;1.67;;;24.60;69.50;;;;;;5046449;28;20071;-73
2023/12/22 08:19:20;;;;;;;11.35;2.10;;;24.70;69.60;;;;;;5044728;28;20029;-74
2023/12/22 08:21:48;;;;;;;7.13;1.48;;;24.60;70.50;;;;;;5028291;28;20119;-73
2023/12/22 08:24:17;;;;;;;5.63;1.25;;;24.50;70.90;;;;;;5043792;28;20029;-75
2023/12/22 08:26:45;;;;;;;5.57;1.00;;;24.30;71.60;;;;;;5048283;28;20036;-74
2023/12/22 08:29:12;;;;;;;7.25;1.75;;;24.10;72.50;;;;;;5047688;28;20028;-75
2023/12/22 08:31:40;;;;;;;4.95;1.60;;;24.00;73.00;;;;;;5046493;28;20041;-74
2023/12/22 08:34:07;;;;;;;10.82;1.08;;;23.90;73.70;;;;;;5050545;28;20029;-74
2023/12/22 08:36:35;;;;;;;5.65;1.40;;;23.90;73.60;;;;;;5036016;28;20030;-75
2023/12/22 08:39:04;;;;;;;13.50;1.77;;;23.90;74.00;;;;;;5046282;28;20032;-74
2023/12/22 08:41:36;;;;;;;6.18;1.23;;;24.00;74.00;;;;;;5059088;28;20452;-74
2023/12/22 08:44:07;;;;;;;10.25;1.70;;;23.90;74.70;;;;;;5050582;28;20108;-75
2023/12/22 08:46:35;;;;;;;7.90;1.33;;;23.90;74.50;;;;;;5053461;28;20035;-74
2023/12/22 08:49:03;;;;;;;9.65;1.33;;;23.80;74.60;;;;;;5048139;28;20041;-74
2023/12/22 08:51:31;;;;;;;10.57;1.17;;;23.70;75.70;;;;;;5034157;28;20167;-75
2023/12/22 08:54:00;;;;;;;13.15;1.85;;;23.70;75.40;;;;;;5049151;28;20357;-73
2023/12/22 08:56:28;;;;;;;14.82;1.70;;;23.60;76.10;;;;;;5046592;28;20060;-74
2023/12/22 08:58:58;;;;;;;11.88;1.67;;;23.40;76.40;;;;;;5049526;28;20026;-74
2023/12/22 09:01:26;;;;;;;8.27;1.40;;;23.50;76.80;;;;;;5026650;28;20367;-75
2023/12/22 09:03:53;;;;;;;9.18;1.10;;;23.50;77.20;;;;;;5049163;28;20029;-75
2023/12/22 09:06:22;;;;;;;12.23;1.92;;;23.50;77.20;;;;;;5027559;28;20052;-75
2023/12/22 09:08:50;;;;;;;9.10;1.65;;;23.40;77.70;;;;;;5045507;28;20112;-74
2023/12/22 09:11:18;;;;;;;11.48;2.35;;;23.30;78.30;;;;;;5051040;28;20029;-74
2023/12/22 09:13:46;;;;;;;11.80;1.70;;;23.20;79.40;;;;;;5038767;28;20419;-75
2023/12/22 09:16:16;;;;;;;9.55;1.35;;;23.10;79.60;;;;;;5036297;28;20037;-75
2023/12/22 09:18:56;;;;;;;14.02;2.47;;;23.10;80.20;;;;;;5054048;28;20115;-75
2023/12/22 09:21:24;;;;;;;12.55;1.65;;;23.00;81.30;;;;;;5053693;28;20056;-74
2023/12/22 09:23:52;;;;;;;6.65;1.10;;;22.90;81.90;;;;;;5052321;28;20125;-74
2023/12/22 09:26:19;;;;;;;14.35;1.48;;;23.00;82.00;;;;;;5034990;28;20020;-75
2023/12/22 09:28:47;;;;;;;11.95;1.75;;;22.90;82.80;;;;;;5055646;28;20033;-74
2023/12/22 09:31:15;;;;;;;12.55;1.50;;;22.90;82.80;;;;;;5054602;28;20076;-74
2023/12/22 09:33:43;;;;;;;9.75;2.22;;;22.90;83.30;;;;;;5035238;28;20039;-75
2023/12/22 09:36:11;;;;;;;15.05;1.95;;;22.90;83.60;;;;;;5051912;28;20021;-75
2023/12/22 09:38:39;;;;;;;12.20;2.55;;;22.90;83.80;;;;;;5055948;28;20032;-75
2023/12/22 09:41:06;;;;;;;12.05;1.80;;;23.00;84.00;;;;;;5047977;28;20159;-75
2023/12/22 09:43:37;;;;;;;16.42;1.90;;;22.90;84.50;;;;;;5052524;28;20025;-74
2023/12/22 09:46:05;;;;;;;10.85;1.50;;;23.00;84.10;;;;;;5058183;28;20025;-75
2023/12/22 09:48:39;;;;;;;10.90;1.27;;;23.00;84.50;;;;;;5049457;28;20021;-75
2023/12/22 09:51:07;;;;;;;11.32;1.90;;;22.90;84.70;;;;;;5050153;28;20052;-75
2023/12/22 09:53:37;;;;;;;11.30;1.48;;;22.90;85.00;;;;;;5050266;28;20041;-75
2023/12/22 09:56:05;;;;;;;10.85;2.03;;;22.80;85.50;;;;;;5051706;28;20028;-74
2023/12/22 09:58:35;;;;;;;7.75;1.30;;;22.80;86.00;;;;;;5049937;28;20025;-74
2023/12/22 10:01:07;;;;;;;6.75;1.60;;;22.40;88.00;;;;;;5051433;28;20130;-74
2023/12/22 10:03:36;;;;;;;12.02;1.83;;;22.40;88.20;;;;;;5049657;28;20064;-74
2023/12/22 10:06:04;;;;;;;8.82;1.30;;;22.40;88.10;;;;;;5054070;28;20037;-75
2023/12/22 10:08:32;;;;;;;7.13;1.65;;;22.40;88.70;;;;;;5037576;28;20044;-74
2023/12/22 10:11:00;;;;;;;8.20;1.90;;;22.30;89.20;;;;;;5051553;28;20024;-74
2023/12/22 10:13:28;;;;;;;10.57;1.90;;;22.40;89.00;;;;;;5034092;28;20383;-74
2023/12/22 10:15:56;;;;;;;9.35;1.73;;;22.30;89.30;;;;;;5048316;28;20463;-75
2023/12/22 10:18:24;;;;;;;7.95;1.77;;;22.30;89.40;;;;;;5049952;28;20028;-74
2023/12/22 10:20:51;;;;;;;11.50;1.30;;;22.20;90.20;;;;;;5053894;28;20036;-74
2023/12/22 10:23:19;;;;;;;9.30;1.30;;;22.10;90.20;;;;;;5047185;28;20017;-74
2023/12/22 10:25:47;;;;;;;8.82;1.30;;;22.10;90.40;;;;;;5045404;28;20465;-74
2023/12/22 10:28:16;;;;;;;9.05;1.52;;;22.00;90.50;;;;;;5048804;28;20079;-72
2023/12/22 10:30:46;;;;;;;9.40;1.33;;;21.90;90.80;;;;;;5054160;28;20059;-73
2023/12/22 10:33:13;;;;;;;12.65;1.48;;;21.80;90.90;;;;;;5034904;28;20083;-74
2023/12/22 10:35:42;;;;;;;11.65;1.98;;;21.70;91.10;;;;;;5057821;28;20052;-74
2023/12/22 10:38:10;;;;;;;10.95;1.50;;;21.60;91.20;;;;;;5058538;28;20025;-74
2023/12/22 10:40:38;;;;;;;10.02;1.73;;;21.70;91.10;;;;;;5052274;28;20044;-74
2023/12/22 10:43:06;;;;;;;7.80;1.25;;;21.60;91.60;;;;;;5051873;28;20071;-74
2023/12/22 10:45:33;;;;;;;11.57;1.80;;;21.60;91.40;;;;;;5053964;28;20367;-73
2023/12/22 10:48:01;;;;;;;10.18;1.58;;;21.70;91.30;;;;;;5050468;28;20018;-73
2023/12/22 10:50:29;;;;;;;15.88;2.40;;;21.70;91.20;;;;;;5032376;28;20074;-74
2023/12/22 10:52:57;;;;;;;10.43;2.15;;;21.70;91.30;;;;;;5046417;28;20075;-73
2023/12/22 10:55:24;;;;;;;14.73;1.63;;;21.70;91.30;;;;;;5055970;28;20079;-74
2023/12/22 10:57:52;;;;;;;16.02;2.10;;;21.70;91.60;;;;;;5035745;28;20443;-74
2023/12/22 11:00:22;;;;;;;6.78;1.63;;;21.60;91.70;;;;;;5054358;28;20044;-73
2023/12/22 11:02:50;;;;;;;11.73;1.67;;;21.40;92.00;;;;;;5055682;28;20362;-74
2023/12/22 11:05:20;;;;;;;11.88;1.98;;;21.10;92.50;;;;;;5052769;28;20132;-73
2023/12/22 11:07:54;;;;;;;11.25;1.52;;;21.00;93.10;;;;;;5056446;28;20068;-74
2023/12/22 11:10:22;;;;;;;16.73;1.85;;;20.80;93.40;;;;;;5050385;28;20039;-74
2023/12/22 11:12:52;;;;;;;10.48;1.63;;;20.80;93.60;;;;;;5050417;28;20041;-75
2023/12/22 11:15:21;;;;;;;13.77;2.15;;;20.70;94.00;;;;;;5052674;28;20021;-74
2023/12/22 11:17:51;;;;;;;11.05;1.80;;;20.60;94.00;;;;;;5051106;28;20024;-75
2023/12/22 11:20:19;;;;;;;12.70;2.13;;;20.50;94.40;;;;;;5046570;28;20052;-74
2023/12/22 11:22:50;;;;;;;11.68;1.73;;;20.50;94.30;;;;;;5032001;28;20346;-75
2023/12/22 11:25:19;;;;;;;15.02;2.88;;;20.50;94.60;;;;;;5036613;28;20029;-74
2023/12/22 11:27:48;;;;;;;14.25;2.25;;;20.40;94.80;;;;;;5044248;28;20029;-75
2023/12/22 11:30:17;;;;;;;10.48;2.25;;;20.50;94.70;;;;;;5044697;28;20024;-75
2023/12/22 11:32:46;;;;;;;9.23;1.63;;;20.40;95.20;;;;;;5048521;28;20504;-75
2023/12/22 11:35:14;;;;;;;11.55;1.88;;;20.50;95.00;;;;;;5042635;28;20378;-75
2023/12/22 11:37:42;;;;;;;8.98;1.42;;;20.50;95.00;;;;;;5052640;28;20027;-74
2023/12/22 11:40:10;;;;;;;11.13;1.60;;;20.50;95.00;;;;;;5047661;28;20043;-74
2023/12/22 11:42:45;;;;;;;10.55;1.83;;;20.40;95.30;;;;;;5046781;28;20466;-74
2023/12/22 11:45:15;;;;;;;15.93;2.03;;;20.40;95.40;;;;;;5047963;28;20022;-74
2023/12/22 11:47:43;;;;;;;15.63;1.75;;;20.50;95.40;;;;;;5047271;28;20025;-74
2023/12/22 11:50:11;;;;;;;12.38;1.80;;;20.40;95.60;;;;;;5048090;28;20032;-74
2023/12/22 11:52:41;;;;;;;19.95;2.55;;;20.40;95.80;;;;;;5054839;28;20053;-74
2023/12/22 11:55:09;;;;;;;9.00;1.48;;;20.40;95.70;;;;;;5052472;28;20043;-74
2023/12/22 11:57:38;;;;;;;11.10;1.80;;;20.50;95.60;;;;;;5053094;28;20020;-74
2023/12/22 12:00:10;;;;;;;8.95;1.58;;;20.60;95.50;;;;;;5047228;28;20020;-74
2023/12/22 12:02:40;;;;;;;12.40;2.30;;;20.60;95.40;;;;;;5054005;28;20038;-74
2023/12/22 12:05:13;;;;;;;18.92;1.95;;;20.60;95.70;;;;;;5062228;28;20059;-74
2023/12/22 12:07:49;;;;;;;12.82;1.73;;;20.50;95.70;;;;;;5045605;28;20052;-74
2023/12/22 12:10:38;;;;;;;11.83;1.60;;;20.50;95.90;;;;;;5051041;28;20020;-74
2023/12/22 12:13:11;;;;;;;;;;;20.40;96.10;;;;;;5055048;28;20300;-74
2023/12/22 12:15:39;;;;;;;15.15;1.80;;;20.30;96.20;;;;;;5055755;28;19912;-74
2023/12/22 12:18:06;;;;;;;15.48;2.40;;;20.20;96.60;;;;;;5059282;28;20029;-74
2023/12/22 12:20:34;;;;;;;20.42;2.13;;;20.30;96.40;;;;;;5057876;28;20020;-74
2023/12/22 12:23:05;;;;;;;10.02;1.67;;;20.20;96.60;;;;;;5057205;28;20478;-74
2023/12/22 12:25:35;;;;;;;14.23;2.17;;;20.20;96.80;;;;;;5041529;28;20044;-74
2023/12/22 12:28:07;;;;;;;15.27;1.83;;;20.40;96.70;;;;;;5056612;28;20451;-74
2023/12/22 12:30:37;;;;;;;10.43;1.50;;;20.30;96.60;;;;;;5057451;28;20021;-74
2023/12/22 12:33:13;;;;;;;11.05;1.90;;;20.30;96.90;;;;;;5054379;28;20036;-74
2023/12/22 12:35:43;;;;;;;12.88;2.42;;;20.30;96.60;;;;;;5054419;28;20071;-74
2023/12/22 12:38:11;;;;;;;9.20;1.77;;;20.30;96.70;;;;;;5053950;28;20619;-74
2023/12/22 12:40:40;;;;;;;14.10;1.80;;;20.40;96.80;;;;;;5057198;28;20095;-74
2023/12/22 12:43:08;;;;;;;11.77;1.90;;;20.50;96.60;;;;;;5054699;28;20025;-74
2023/12/22 12:45:35;;;;;;;15.43;2.20;;;20.50;96.60;;;;;;5049765;28;20090;-74
2023/12/22 12:48:04;;;;;;;11.73;1.92;;;20.60;96.30;;;;;;5053190;28;20020;-74
2023/12/22 12:50:31;;;;;;;9.38;1.77;;;20.60;96.20;;;;;;5050788;28;20075;-75